sensor_id;sensor_type;location;lat;lon;timestamp;temperature;humidity
71237;DHT22;58984;51.960;5.582;2023-06-22T00:01:23;27.10;49.40
71237;DHT22;58984;51.960;5.582;2023-06-22T00:03:48;27.10;49.40
71237;DHT22;58984;51.960;5.582;2023-06-22T00:06:14;27.10;49.40
71237;DHT22;58984;51.960;5.582;2023-06-22T00:08:40;27.10;49.50
71237;DHT22;58984;51.960;5.582;2023-06-22T00:11:06;27.10;49.60
71237;DHT22;58984;51.960;5.582;2023-06-22T00:13:31;27.10;49.60
71237;DHT22;58984;51.960;5.582;2023-06-22T00:15:57;27.10;49.70
71237;DHT22;58984;51.960;5.582;2023-06-22T00:18:22;27.00;49.70
71237;DHT22;58984;51.960;5.582;2023-06-22T00:20:53;27.00;49.60
71237;DHT22;58984;51.960;5.582;2023-06-22T00:23:23;27.00;49.70
71237;DHT22;58984;51.960;5.582;2023-06-22T00:25:49;27.00;49.70
71237;DHT22;58984;51.960;5.582;2023-06-22T00:28:14;27.00;49.80
71237;DHT22;58984;51.960;5.582;2023-06-22T00:30:40;27.00;49.80
71237;DHT22;58984;51.960;5.582;2023-06-22T00:33:06;27.00;49.80
71237;DHT22;58984;51.960;5.582;2023-06-22T00:35:33;26.90;49.80
71237;DHT22;58984;51.960;5.582;2023-06-22T00:37:59;26.90;49.80
71237;DHT22;58984;51.960;5.582;2023-06-22T00:40:31;26.90;49.80
71237;DHT22;58984;51.960;5.582;2023-06-22T00:42:57;26.90;49.80
71237;DHT22;58984;51.960;5.582;2023-06-22T00:45:24;26.90;49.80
71237;DHT22;58984;51.960;5.582;2023-06-22T00:47:53;26.90;49.80
71237;DHT22;58984;51.960;5.582;2023-06-22T00:50:21;26.80;49.90
71237;DHT22;58984;51.960;5.582;2023-06-22T00:52:58;26.80;49.90
71237;DHT22;58984;51.960;5.582;2023-06-22T00:55:25;26.80;49.90
71237;DHT22;58984;51.960;5.582;2023-06-22T00:57:53;26.80;49.80
71237;DHT22;58984;51.960;5.582;2023-06-22T01:00:25;26.80;49.90
71237;DHT22;58984;51.960;5.582;2023-06-22T01:02:52;26.80;50.00
71237;DHT22;58984;51.960;5.582;2023-06-22T01:05:21;26.80;50.00
71237;DHT22;58984;51.960;5.582;2023-06-22T01:10:48;26.70;50.00
71237;DHT22;58984;51.960;5.582;2023-06-22T01:16:20;26.60;50.00
71237;DHT22;58984;51.960;5.582;2023-06-22T01:18:52;26.70;50.70
71237;DHT22;58984;51.960;5.582;2023-06-22T01:21:19;26.70;50.20
71237;DHT22;58984;51.960;5.582;2023-06-22T01:23:58;26.70;50.30
71237;DHT22;58984;51.960;5.582;2023-06-22T01:29:31;26.60;50.30
71237;DHT22;58984;51.960;5.582;2023-06-22T01:31:58;26.70;50.20
71237;DHT22;58984;51.960;5.582;2023-06-22T01:34:25;26.60;50.30
71237;DHT22;58984;51.960;5.582;2023-06-22T01:36:51;26.60;50.30
71237;DHT22;58984;51.960;5.582;2023-06-22T01:39:18;26.50;50.90
71237;DHT22;58984;51.960;5.582;2023-06-22T01:41:44;26.60;50.30
71237;DHT22;58984;51.960;5.582;2023-06-22T01:44:10;26.50;50.30
71237;DHT22;58984;51.960;5.582;2023-06-22T01:46:37;26.50;50.30
71237;DHT22;58984;51.960;5.582;2023-06-22T01:49:04;26.50;50.30
71237;DHT22;58984;51.960;5.582;2023-06-22T01:51:30;26.50;50.30
71237;DHT22;58984;51.960;5.582;2023-06-22T01:53:56;26.50;50.50
71237;DHT22;58984;51.960;5.582;2023-06-22T01:56:22;26.50;50.50
71237;DHT22;58984;51.960;5.582;2023-06-22T01:59:09;26.40;50.40
71237;DHT22;58984;51.960;5.582;2023-06-22T02:02:07;26.40;50.50
71237;DHT22;58984;51.960;5.582;2023-06-22T02:04:39;26.40;50.50
71237;DHT22;58984;51.960;5.582;2023-06-22T02:07:13;26.40;50.50
71237;DHT22;58984;51.960;5.582;2023-06-22T02:09:39;26.40;50.60
71237;DHT22;58984;51.960;5.582;2023-06-22T02:12:08;26.50;50.50
71237;DHT22;58984;51.960;5.582;2023-06-22T02:14:36;26.50;50.40
71237;DHT22;58984;51.960;5.582;2023-06-22T02:17:03;26.40;50.50
71237;DHT22;58984;51.960;5.582;2023-06-22T02:19:30;26.40;50.60
71237;DHT22;58984;51.960;5.582;2023-06-22T02:21:58;26.30;50.60
71237;DHT22;58984;51.960;5.582;2023-06-22T02:24:24;26.30;50.70
71237;DHT22;58984;51.960;5.582;2023-06-22T02:26:49;26.30;50.70
71237;DHT22;58984;51.960;5.582;2023-06-22T02:29:15;26.30;50.80
71237;DHT22;58984;51.960;5.582;2023-06-22T02:31:41;26.30;50.80
71237;DHT22;58984;51.960;5.582;2023-06-22T02:34:06;26.30;50.80
71237;DHT22;58984;51.960;5.582;2023-06-22T02:36:32;26.30;50.90
71237;DHT22;58984;51.960;5.582;2023-06-22T02:38:59;26.20;50.90
71237;DHT22;58984;51.960;5.582;2023-06-22T02:41:27;26.20;50.90
71237;DHT22;58984;51.960;5.582;2023-06-22T02:43:52;26.20;50.90
71237;DHT22;58984;51.960;5.582;2023-06-22T02:46:18;26.20;50.90
71237;DHT22;58984;51.960;5.582;2023-06-22T02:48:43;26.20;50.90
71237;DHT22;58984;51.960;5.582;2023-06-22T02:51:09;26.20;50.90
71237;DHT22;58984;51.960;5.582;2023-06-22T02:53:35;26.20;50.90
71237;DHT22;58984;51.960;5.582;2023-06-22T02:56:02;26.20;50.90
71237;DHT22;58984;51.960;5.582;2023-06-22T02:58:31;26.10;51.00
71237;DHT22;58984;51.960;5.582;2023-06-22T03:01:04;26.10;51.00
71237;DHT22;58984;51.960;5.582;2023-06-22T03:03:30;26.20;51.00
71237;DHT22;58984;51.960;5.582;2023-06-22T03:05:56;26.10;51.10
71237;DHT22;58984;51.960;5.582;2023-06-22T03:08:21;26.10;51.00
71237;DHT22;58984;51.960;5.582;2023-06-22T03:10:47;26.10;51.20
71237;DHT22;58984;51.960;5.582;2023-06-22T03:13:12;26.10;51.10
71237;DHT22;58984;51.960;5.582;2023-06-22T03:15:38;26.00;51.10
71237;DHT22;58984;51.960;5.582;2023-06-22T03:18:03;26.00;51.10
71237;DHT22;58984;51.960;5.582;2023-06-22T03:20:30;26.00;51.10
71237;DHT22;58984;51.960;5.582;2023-06-22T03:22:59;26.00;51.20
71237;DHT22;58984;51.960;5.582;2023-06-22T03:25:24;26.00;51.20
71237;DHT22;58984;51.960;5.582;2023-06-22T03:27:50;26.00;51.20
71237;DHT22;58984;51.960;5.582;2023-06-22T03:30:15;26.00;51.30
71237;DHT22;58984;51.960;5.582;2023-06-22T03:32:41;25.90;51.20
71237;DHT22;58984;51.960;5.582;2023-06-22T03:35:08;25.90;51.20
71237;DHT22;58984;51.960;5.582;2023-06-22T03:37:33;25.90;51.20
71237;DHT22;58984;51.960;5.582;2023-06-22T03:39:59;25.90;51.30
71237;DHT22;58984;51.960;5.582;2023-06-22T03:42:25;25.90;51.30
71237;DHT22;58984;51.960;5.582;2023-06-22T03:44:51;25.90;51.40
71237;DHT22;58984;51.960;5.582;2023-06-22T03:47:17;25.90;51.40
71237;DHT22;58984;51.960;5.582;2023-06-22T03:49:43;25.90;51.40
71237;DHT22;58984;51.960;5.582;2023-06-22T03:52:08;25.90;51.50
71237;DHT22;58984;51.960;5.582;2023-06-22T03:54:34;25.80;51.40
71237;DHT22;58984;51.960;5.582;2023-06-22T03:57:00;25.80;51.40
71237;DHT22;58984;51.960;5.582;2023-06-22T03:59:26;25.80;51.50
71237;DHT22;58984;51.960;5.582;2023-06-22T04:01:51;25.80;51.50
71237;DHT22;58984;51.960;5.582;2023-06-22T04:04:18;25.80;51.50
71237;DHT22;58984;51.960;5.582;2023-06-22T04:06:43;25.80;51.50
71237;DHT22;58984;51.960;5.582;2023-06-22T04:09:09;25.80;51.50
71237;DHT22;58984;51.960;5.582;2023-06-22T04:11:34;25.80;51.50
71237;DHT22;58984;51.960;5.582;2023-06-22T04:14:00;25.80;51.50
71237;DHT22;58984;51.960;5.582;2023-06-22T04:16:26;25.80;51.50
71237;DHT22;58984;51.960;5.582;2023-06-22T04:18:52;25.70;51.50
71237;DHT22;58984;51.960;5.582;2023-06-22T04:21:17;25.70;51.50
71237;DHT22;58984;51.960;5.582;2023-06-22T04:23:45;25.70;51.60
71237;DHT22;58984;51.960;5.582;2023-06-22T04:26:11;25.70;51.70
71237;DHT22;58984;51.960;5.582;2023-06-22T04:28:37;25.70;51.70
71237;DHT22;58984;51.960;5.582;2023-06-22T04:31:03;25.70;51.70
71237;DHT22;58984;51.960;5.582;2023-06-22T04:33:29;25.70;51.70
71237;DHT22;58984;51.960;5.582;2023-06-22T04:35:55;25.70;51.80
71237;DHT22;58984;51.960;5.582;2023-06-22T04:38:22;25.70;51.80
71237;DHT22;58984;51.960;5.582;2023-06-22T04:40:48;25.60;51.80
71237;DHT22;58984;51.960;5.582;2023-06-22T04:43:14;25.60;51.80
71237;DHT22;58984;51.960;5.582;2023-06-22T04:45:39;25.60;51.80
71237;DHT22;58984;51.960;5.582;2023-06-22T04:48:05;25.60;51.90
71237;DHT22;58984;51.960;5.582;2023-06-22T04:50:31;25.60;51.90
71237;DHT22;58984;51.960;5.582;2023-06-22T04:52:57;25.60;51.90
71237;DHT22;58984;51.960;5.582;2023-06-22T04:55:24;25.60;52.00
71237;DHT22;58984;51.960;5.582;2023-06-22T04:57:51;25.60;52.00
71237;DHT22;58984;51.960;5.582;2023-06-22T05:00:18;25.60;52.00
71237;DHT22;58984;51.960;5.582;2023-06-22T05:02:46;25.60;52.10
71237;DHT22;58984;51.960;5.582;2023-06-22T05:05:13;25.50;52.10
71237;DHT22;58984;51.960;5.582;2023-06-22T05:07:46;25.60;52.20
71237;DHT22;58984;51.960;5.582;2023-06-22T05:10:14;25.50;52.20
71237;DHT22;58984;51.960;5.582;2023-06-22T05:12:40;25.50;52.20
71237;DHT22;58984;51.960;5.582;2023-06-22T05:15:08;25.50;52.30
71237;DHT22;58984;51.960;5.582;2023-06-22T05:17:34;25.50;52.30
71237;DHT22;58984;51.960;5.582;2023-06-22T05:20:00;25.50;52.30
71237;DHT22;58984;51.960;5.582;2023-06-22T05:22:25;25.50;52.40
71237;DHT22;58984;51.960;5.582;2023-06-22T05:24:51;25.50;52.50
71237;DHT22;58984;51.960;5.582;2023-06-22T05:27:16;25.50;52.50
71237;DHT22;58984;51.960;5.582;2023-06-22T05:29:42;25.50;52.60
71237;DHT22;58984;51.960;5.582;2023-06-22T05:32:08;25.50;52.60
71237;DHT22;58984;51.960;5.582;2023-06-22T05:34:34;25.50;52.70
71237;DHT22;58984;51.960;5.582;2023-06-22T05:36:59;25.50;52.70
71237;DHT22;58984;51.960;5.582;2023-06-22T05:39:25;25.50;52.90
71237;DHT22;58984;51.960;5.582;2023-06-22T05:41:51;25.50;52.90
71237;DHT22;58984;51.960;5.582;2023-06-22T05:44:17;25.50;52.90
71237;DHT22;58984;51.960;5.582;2023-06-22T05:46:44;25.50;52.90
71237;DHT22;58984;51.960;5.582;2023-06-22T05:49:11;25.50;52.90
71237;DHT22;58984;51.960;5.582;2023-06-22T05:51:37;25.50;52.90
71237;DHT22;58984;51.960;5.582;2023-06-22T05:54:02;25.50;52.90
71237;DHT22;58984;51.960;5.582;2023-06-22T05:56:28;25.60;52.90
71237;DHT22;58984;51.960;5.582;2023-06-22T05:58:53;25.50;52.90
71237;DHT22;58984;51.960;5.582;2023-06-22T06:01:19;25.50;52.90
71237;DHT22;58984;51.960;5.582;2023-06-22T06:03:45;25.60;52.90
71237;DHT22;58984;51.960;5.582;2023-06-22T06:06:11;25.60;53.00
71237;DHT22;58984;51.960;5.582;2023-06-22T06:08:38;25.60;52.90
71237;DHT22;58984;51.960;5.582;2023-06-22T06:11:03;25.60;53.10
71237;DHT22;58984;51.960;5.582;2023-06-22T06:13:29;25.60;53.10
71237;DHT22;58984;51.960;5.582;2023-06-22T06:15:56;25.60;53.10
71237;DHT22;58984;51.960;5.582;2023-06-22T06:18:22;25.60;53.20
71237;DHT22;58984;51.960;5.582;2023-06-22T06:20:48;25.60;53.40
71237;DHT22;58984;51.960;5.582;2023-06-22T06:23:14;25.60;53.40
71237;DHT22;58984;51.960;5.582;2023-06-22T06:25:40;25.60;53.40
71237;DHT22;58984;51.960;5.582;2023-06-22T06:28:06;25.70;53.40
71237;DHT22;58984;51.960;5.582;2023-06-22T06:30:31;25.60;53.40
71237;DHT22;58984;51.960;5.582;2023-06-22T06:32:57;25.70;53.50
71237;DHT22;58984;51.960;5.582;2023-06-22T06:35:23;25.70;53.50
71237;DHT22;58984;51.960;5.582;2023-06-22T06:37:50;25.70;53.30
71237;DHT22;58984;51.960;5.582;2023-06-22T06:40:17;25.60;53.30
71237;DHT22;58984;51.960;5.582;2023-06-22T06:42:46;25.70;53.30
71237;DHT22;58984;51.960;5.582;2023-06-22T06:47:41;25.70;53.00
71237;DHT22;58984;51.960;5.582;2023-06-22T06:50:07;25.80;53.10
71237;DHT22;58984;51.960;5.582;2023-06-22T06:52:33;25.80;53.10
71237;DHT22;58984;51.960;5.582;2023-06-22T06:54:59;25.80;53.10
71237;DHT22;58984;51.960;5.582;2023-06-22T06:57:25;25.80;53.10
71237;DHT22;58984;51.960;5.582;2023-06-22T06:59:54;25.80;53.10
71237;DHT22;58984;51.960;5.582;2023-06-22T07:02:21;25.80;53.10
71237;DHT22;58984;51.960;5.582;2023-06-22T07:04:47;25.90;53.10
71237;DHT22;58984;51.960;5.582;2023-06-22T07:07:13;25.90;53.10
71237;DHT22;58984;51.960;5.582;2023-06-22T07:09:39;25.90;53.20
71237;DHT22;58984;51.960;5.582;2023-06-22T07:12:05;25.90;53.10
71237;DHT22;58984;51.960;5.582;2023-06-22T07:14:30;25.90;53.00
71237;DHT22;58984;51.960;5.582;2023-06-22T07:16:57;26.00;53.10
71237;DHT22;58984;51.960;5.582;2023-06-22T07:19:27;26.00;52.90
71237;DHT22;58984;51.960;5.582;2023-06-22T07:21:53;26.00;52.90
71237;DHT22;58984;51.960;5.582;2023-06-22T07:24:22;26.10;53.00
71237;DHT22;58984;51.960;5.582;2023-06-22T07:26:48;26.10;52.90
71237;DHT22;58984;51.960;5.582;2023-06-22T07:29:19;26.10;53.00
71237;DHT22;58984;51.960;5.582;2023-06-22T07:31:46;26.10;53.00
71237;DHT22;58984;51.960;5.582;2023-06-22T07:34:12;26.20;53.10
71237;DHT22;58984;51.960;5.582;2023-06-22T07:36:38;26.30;52.70
71237;DHT22;58984;51.960;5.582;2023-06-22T07:39:03;26.20;53.20
71237;DHT22;58984;51.960;5.582;2023-06-22T07:41:29;26.30;53.30
71237;DHT22;58984;51.960;5.582;2023-06-22T07:43:55;26.30;53.40
71237;DHT22;58984;51.960;5.582;2023-06-22T07:46:21;26.30;53.40
71237;DHT22;58984;51.960;5.582;2023-06-22T07:48:47;26.40;53.40
71237;DHT22;58984;51.960;5.582;2023-06-22T07:51:12;26.40;53.40
71237;DHT22;58984;51.960;5.582;2023-06-22T07:53:40;26.40;53.30
71237;DHT22;58984;51.960;5.582;2023-06-22T07:56:06;26.40;53.20
71237;DHT22;58984;51.960;5.582;2023-06-22T07:58:33;26.50;53.20
71237;DHT22;58984;51.960;5.582;2023-06-22T08:00:59;26.50;53.00
71237;DHT22;58984;51.960;5.582;2023-06-22T08:03:24;26.50;53.10
71237;DHT22;58984;51.960;5.582;2023-06-22T08:05:50;26.60;53.00
71237;DHT22;58984;51.960;5.582;2023-06-22T08:08:15;26.60;53.00
71237;DHT22;58984;51.960;5.582;2023-06-22T08:10:42;26.70;53.70
71237;DHT22;58984;51.960;5.582;2023-06-22T08:13:08;26.70;53.10
71237;DHT22;58984;51.960;5.582;2023-06-22T08:15:33;26.70;53.00
71237;DHT22;58984;51.960;5.582;2023-06-22T08:17:59;26.70;53.00
71237;DHT22;58984;51.960;5.582;2023-06-22T08:20:26;26.80;53.00
71237;DHT22;58984;51.960;5.582;2023-06-22T08:22:54;26.80;52.90
71237;DHT22;58984;51.960;5.582;2023-06-22T08:25:20;26.80;52.90
71237;DHT22;58984;51.960;5.582;2023-06-22T08:27:47;26.80;52.90
71237;DHT22;58984;51.960;5.582;2023-06-22T08:30:14;26.90;52.90
71237;DHT22;58984;51.960;5.582;2023-06-22T08:32:39;26.90;52.80
71237;DHT22;58984;51.960;5.582;2023-06-22T08:35:05;26.90;52.80
71237;DHT22;58984;51.960;5.582;2023-06-22T08:37:33;26.90;52.80
71237;DHT22;58984;51.960;5.582;2023-06-22T08:40:02;26.90;52.80
71237;DHT22;58984;51.960;5.582;2023-06-22T08:42:29;27.00;52.80
71237;DHT22;58984;51.960;5.582;2023-06-22T08:44:55;27.00;52.80
71237;DHT22;58984;51.960;5.582;2023-06-22T08:47:21;27.00;52.70
71237;DHT22;58984;51.960;5.582;2023-06-22T08:49:46;27.00;52.70
71237;DHT22;58984;51.960;5.582;2023-06-22T08:52:12;27.00;52.70
71237;DHT22;58984;51.960;5.582;2023-06-22T08:54:38;27.00;52.60
71237;DHT22;58984;51.960;5.582;2023-06-22T08:57:04;27.00;52.60
71237;DHT22;58984;51.960;5.582;2023-06-22T08:59:30;27.10;52.70
71237;DHT22;58984;51.960;5.582;2023-06-22T09:01:56;27.10;52.70
71237;DHT22;58984;51.960;5.582;2023-06-22T09:04:22;27.10;52.70
71237;DHT22;58984;51.960;5.582;2023-06-22T09:06:48;27.10;52.70
71237;DHT22;58984;51.960;5.582;2023-06-22T09:09:16;27.10;52.60
71237;DHT22;58984;51.960;5.582;2023-06-22T09:11:41;27.10;52.60
71237;DHT22;58984;51.960;5.582;2023-06-22T09:14:08;27.20;52.70
71237;DHT22;58984;51.960;5.582;2023-06-22T09:16:34;27.20;52.70
71237;DHT22;58984;51.960;5.582;2023-06-22T09:19:00;27.20;52.60
71237;DHT22;58984;51.960;5.582;2023-06-22T09:21:26;27.30;52.70
71237;DHT22;58984;51.960;5.582;2023-06-22T09:23:51;27.20;52.60
71237;DHT22;58984;51.960;5.582;2023-06-22T09:26:20;27.30;52.60
71237;DHT22;58984;51.960;5.582;2023-06-22T09:28:46;27.20;52.60
71237;DHT22;58984;51.960;5.582;2023-06-22T09:31:12;27.30;52.50
71237;DHT22;58984;51.960;5.582;2023-06-22T09:33:39;27.30;52.50
71237;DHT22;58984;51.960;5.582;2023-06-22T09:36:05;27.40;52.90
71237;DHT22;58984;51.960;5.582;2023-06-22T09:38:36;27.40;52.90
71237;DHT22;58984;51.960;5.582;2023-06-22T09:41:02;27.40;52.80
71237;DHT22;58984;51.960;5.582;2023-06-22T09:43:28;27.40;52.70
71237;DHT22;58984;51.960;5.582;2023-06-22T09:45:54;27.40;52.70
71237;DHT22;58984;51.960;5.582;2023-06-22T09:48:19;27.40;52.60
71237;DHT22;58984;51.960;5.582;2023-06-22T09:50:45;27.40;52.60
71237;DHT22;58984;51.960;5.582;2023-06-22T09:53:10;27.40;52.60
71237;DHT22;58984;51.960;5.582;2023-06-22T09:55:36;27.40;52.60
71237;DHT22;58984;51.960;5.582;2023-06-22T09:58:02;27.40;52.60
71237;DHT22;58984;51.960;5.582;2023-06-22T10:00:27;27.50;52.50
71237;DHT22;58984;51.960;5.582;2023-06-22T10:02:53;27.50;52.50
71237;DHT22;58984;51.960;5.582;2023-06-22T10:05:18;27.50;52.50
71237;DHT22;58984;51.960;5.582;2023-06-22T10:07:44;27.50;52.50
71237;DHT22;58984;51.960;5.582;2023-06-22T10:10:10;27.50;52.50
71237;DHT22;58984;51.960;5.582;2023-06-22T10:12:41;27.50;52.50
71237;DHT22;58984;51.960;5.582;2023-06-22T10:15:07;27.50;52.50
71237;DHT22;58984;51.960;5.582;2023-06-22T10:17:33;27.50;52.50
71237;DHT22;58984;51.960;5.582;2023-06-22T10:19:58;27.50;52.50
71237;DHT22;58984;51.960;5.582;2023-06-22T10:22:24;27.50;52.50
71237;DHT22;58984;51.960;5.582;2023-06-22T10:24:50;27.50;52.50
71237;DHT22;58984;51.960;5.582;2023-06-22T10:27:15;27.50;52.50
71237;DHT22;58984;51.960;5.582;2023-06-22T10:29:41;27.50;52.50
71237;DHT22;58984;51.960;5.582;2023-06-22T10:32:07;27.50;52.50
71237;DHT22;58984;51.960;5.582;2023-06-22T10:34:33;27.50;52.50
71237;DHT22;58984;51.960;5.582;2023-06-22T10:36:59;27.50;52.50
71237;DHT22;58984;51.960;5.582;2023-06-22T10:39:24;27.50;52.50
71237;DHT22;58984;51.960;5.582;2023-06-22T10:41:50;27.50;52.60
71237;DHT22;58984;51.960;5.582;2023-06-22T10:44:16;27.50;52.60
71237;DHT22;58984;51.960;5.582;2023-06-22T10:46:42;27.50;52.50
71237;DHT22;58984;51.960;5.582;2023-06-22T10:49:08;27.50;52.70
71237;DHT22;58984;51.960;5.582;2023-06-22T10:51:34;27.50;52.50
71237;DHT22;58984;51.960;5.582;2023-06-22T10:53:59;27.50;52.50
71237;DHT22;58984;51.960;5.582;2023-06-22T10:56:25;27.50;52.50
71237;DHT22;58984;51.960;5.582;2023-06-22T10:58:50;27.50;52.60
71237;DHT22;58984;51.960;5.582;2023-06-22T11:01:16;27.50;52.50
71237;DHT22;58984;51.960;5.582;2023-06-22T11:03:41;27.50;52.50
71237;DHT22;58984;51.960;5.582;2023-06-22T11:06:07;27.50;52.50
71237;DHT22;58984;51.960;5.582;2023-06-22T11:08:33;27.50;52.60
71237;DHT22;58984;51.960;5.582;2023-06-22T11:10:58;27.50;52.60
71237;DHT22;58984;51.960;5.582;2023-06-22T11:13:24;27.50;52.60
71237;DHT22;58984;51.960;5.582;2023-06-22T11:15:50;27.50;52.60
71237;DHT22;58984;51.960;5.582;2023-06-22T11:18:15;27.50;52.50
71237;DHT22;58984;51.960;5.582;2023-06-22T11:20:42;27.50;52.60
71237;DHT22;58984;51.960;5.582;2023-06-22T11:23:07;27.50;52.60
71237;DHT22;58984;51.960;5.582;2023-06-22T11:25:33;27.50;52.60
71237;DHT22;58984;51.960;5.582;2023-06-22T11:28:03;27.50;52.70
71237;DHT22;58984;51.960;5.582;2023-06-22T11:30:29;27.50;52.70
71237;DHT22;58984;51.960;5.582;2023-06-22T11:32:57;27.50;52.60
71237;DHT22;58984;51.960;5.582;2023-06-22T11:35:23;27.50;52.70
71237;DHT22;58984;51.960;5.582;2023-06-22T11:37:49;27.50;52.70
71237;DHT22;58984;51.960;5.582;2023-06-22T11:40:14;27.50;52.70
71237;DHT22;58984;51.960;5.582;2023-06-22T11:42:40;27.60;52.90
71237;DHT22;58984;51.960;5.582;2023-06-22T11:45:06;27.60;53.00
71237;DHT22;58984;51.960;5.582;2023-06-22T11:47:32;27.50;52.90
71237;DHT22;58984;51.960;5.582;2023-06-22T11:49:57;27.60;52.90
71237;DHT22;58984;51.960;5.582;2023-06-22T11:52:23;27.60;53.10
71237;DHT22;58984;51.960;5.582;2023-06-22T11:54:48;27.60;53.20
71237;DHT22;58984;51.960;5.582;2023-06-22T11:57:14;27.60;53.00
71237;DHT22;58984;51.960;5.582;2023-06-22T11:59:40;27.60;52.90
71237;DHT22;58984;51.960;5.582;2023-06-22T12:02:05;27.60;53.10
71237;DHT22;58984;51.960;5.582;2023-06-22T12:04:32;27.60;53.30
71237;DHT22;58984;51.960;5.582;2023-06-22T12:06:58;27.60;53.20
71237;DHT22;58984;51.960;5.582;2023-06-22T12:09:24;27.60;53.40
71237;DHT22;58984;51.960;5.582;2023-06-22T12:11:49;27.60;53.40
71237;DHT22;58984;51.960;5.582;2023-06-22T12:14:15;27.60;53.50
71237;DHT22;58984;51.960;5.582;2023-06-22T12:16:40;27.60;53.70
71237;DHT22;58984;51.960;5.582;2023-06-22T12:19:06;27.60;53.80
71237;DHT22;58984;51.960;5.582;2023-06-22T12:21:32;27.60;53.80
71237;DHT22;58984;51.960;5.582;2023-06-22T12:23:57;27.60;54.20
71237;DHT22;58984;51.960;5.582;2023-06-22T12:26:23;27.60;54.20
71237;DHT22;58984;51.960;5.582;2023-06-22T12:28:48;27.60;54.20
71237;DHT22;58984;51.960;5.582;2023-06-22T12:31:14;27.60;54.60
71237;DHT22;58984;51.960;5.582;2023-06-22T12:33:40;27.60;54.80
71237;DHT22;58984;51.960;5.582;2023-06-22T12:36:05;27.60;55.20
71237;DHT22;58984;51.960;5.582;2023-06-22T12:38:31;27.60;55.40
71237;DHT22;58984;51.960;5.582;2023-06-22T12:40:56;27.60;56.00
71237;DHT22;58984;51.960;5.582;2023-06-22T12:43:22;27.60;56.70
71237;DHT22;58984;51.960;5.582;2023-06-22T12:45:47;27.60;57.00
71237;DHT22;58984;51.960;5.582;2023-06-22T12:48:13;27.60;56.80
71237;DHT22;58984;51.960;5.582;2023-06-22T12:50:39;27.60;57.00
71237;DHT22;58984;51.960;5.582;2023-06-22T12:53:04;27.60;57.20
71237;DHT22;58984;51.960;5.582;2023-06-22T12:55:31;27.60;57.20
71237;DHT22;58984;51.960;5.582;2023-06-22T12:57:57;27.60;57.40
71237;DHT22;58984;51.960;5.582;2023-06-22T13:00:23;27.60;57.70
71237;DHT22;58984;51.960;5.582;2023-06-22T13:02:48;27.60;57.90
71237;DHT22;58984;51.960;5.582;2023-06-22T13:05:14;27.60;57.50
71237;DHT22;58984;51.960;5.582;2023-06-22T13:07:39;27.60;57.70
71237;DHT22;58984;51.960;5.582;2023-06-22T13:10:05;27.60;57.80
71237;DHT22;58984;51.960;5.582;2023-06-22T13:12:31;27.50;58.20
71237;DHT22;58984;51.960;5.582;2023-06-22T13:14:57;27.60;58.70
71237;DHT22;58984;51.960;5.582;2023-06-22T13:17:22;27.50;58.60
71237;DHT22;58984;51.960;5.582;2023-06-22T13:19:48;27.50;58.80
71237;DHT22;58984;51.960;5.582;2023-06-22T13:22:35;27.50;58.90
71237;DHT22;58984;51.960;5.582;2023-06-22T13:25:06;27.40;58.90
71237;DHT22;58984;51.960;5.582;2023-06-22T13:27:32;27.50;58.90
71237;DHT22;58984;51.960;5.582;2023-06-22T13:29:58;27.50;59.00
71237;DHT22;58984;51.960;5.582;2023-06-22T13:32:24;27.50;59.00
71237;DHT22;58984;51.960;5.582;2023-06-22T13:34:51;27.50;59.40
71237;DHT22;58984;51.960;5.582;2023-06-22T13:37:16;27.50;59.70
71237;DHT22;58984;51.960;5.582;2023-06-22T13:39:42;27.50;59.90
71237;DHT22;58984;51.960;5.582;2023-06-22T13:42:08;27.50;60.00
71237;DHT22;58984;51.960;5.582;2023-06-22T13:44:33;27.40;59.80
71237;DHT22;58984;51.960;5.582;2023-06-22T13:46:59;27.40;60.00
71237;DHT22;58984;51.960;5.582;2023-06-22T13:49:25;27.40;59.90
71237;DHT22;58984;51.960;5.582;2023-06-22T13:51:51;27.40;60.00
71237;DHT22;58984;51.960;5.582;2023-06-22T13:54:17;27.40;60.00
71237;DHT22;58984;51.960;5.582;2023-06-22T13:56:42;27.40;59.90
71237;DHT22;58984;51.960;5.582;2023-06-22T13:59:08;27.40;60.00
71237;DHT22;58984;51.960;5.582;2023-06-22T14:01:35;27.40;60.10
71237;DHT22;58984;51.960;5.582;2023-06-22T14:04:01;27.40;60.10
71237;DHT22;58984;51.960;5.582;2023-06-22T14:06:27;27.40;60.10
71237;DHT22;58984;51.960;5.582;2023-06-22T14:08:53;27.40;60.00
71237;DHT22;58984;51.960;5.582;2023-06-22T14:11:19;27.40;59.90
71237;DHT22;58984;51.960;5.582;2023-06-22T14:13:44;27.40;60.00
71237;DHT22;58984;51.960;5.582;2023-06-22T14:16:10;27.30;59.80
71237;DHT22;58984;51.960;5.582;2023-06-22T14:18:35;27.40;60.00
71237;DHT22;58984;51.960;5.582;2023-06-22T14:21:01;27.30;59.60
71237;DHT22;58984;51.960;5.582;2023-06-22T14:23:27;27.30;59.60
71237;DHT22;58984;51.960;5.582;2023-06-22T14:25:52;27.30;59.70
71237;DHT22;58984;51.960;5.582;2023-06-22T14:28:18;27.30;59.70
71237;DHT22;58984;51.960;5.582;2023-06-22T14:30:44;27.30;59.80
71237;DHT22;58984;51.960;5.582;2023-06-22T14:33:09;27.30;59.80
71237;DHT22;58984;51.960;5.582;2023-06-22T14:35:35;27.30;59.90
71237;DHT22;58984;51.960;5.582;2023-06-22T14:38:00;27.30;59.90
71237;DHT22;58984;51.960;5.582;2023-06-22T14:40:26;27.30;60.00
71237;DHT22;58984;51.960;5.582;2023-06-22T14:42:51;27.30;59.90
71237;DHT22;58984;51.960;5.582;2023-06-22T14:45:17;27.30;59.90
71237;DHT22;58984;51.960;5.582;2023-06-22T14:47:43;27.20;60.50
71237;DHT22;58984;51.960;5.582;2023-06-22T14:50:08;27.20;59.90
71237;DHT22;58984;51.960;5.582;2023-06-22T14:52:34;27.20;59.80
71237;DHT22;58984;51.960;5.582;2023-06-22T14:54:59;27.20;59.80
71237;DHT22;58984;51.960;5.582;2023-06-22T14:57:25;27.20;59.90
71237;DHT22;58984;51.960;5.582;2023-06-22T14:59:50;27.20;59.90
71237;DHT22;58984;51.960;5.582;2023-06-22T15:02:16;27.20;59.90
71237;DHT22;58984;51.960;5.582;2023-06-22T15:04:42;27.20;59.80
71237;DHT22;58984;51.960;5.582;2023-06-22T15:07:08;27.10;59.80
71237;DHT22;58984;51.960;5.582;2023-06-22T15:09:33;27.10;59.80
71237;DHT22;58984;51.960;5.582;2023-06-22T15:11:59;27.10;59.80
71237;DHT22;58984;51.960;5.582;2023-06-22T15:14:27;27.20;59.90
71237;DHT22;58984;51.960;5.582;2023-06-22T15:16:52;27.10;59.70
71237;DHT22;58984;51.960;5.582;2023-06-22T15:19:18;27.10;59.70
71237;DHT22;58984;51.960;5.582;2023-06-22T15:21:44;27.10;59.80
71237;DHT22;58984;51.960;5.582;2023-06-22T15:24:09;27.10;59.80
71237;DHT22;58984;51.960;5.582;2023-06-22T15:26:35;27.10;59.70
71237;DHT22;58984;51.960;5.582;2023-06-22T15:29:00;27.10;59.80
71237;DHT22;58984;51.960;5.582;2023-06-22T15:31:27;27.10;59.80
71237;DHT22;58984;51.960;5.582;2023-06-22T15:33:53;27.10;60.60
71237;DHT22;58984;51.960;5.582;2023-06-22T15:36:18;27.10;59.90